Time;durP1;ratioP1;P1;durP2;ratioP2;P2;SDS_P1;SDS_P2;PMS_P1;PMS_P2;Temp;Humidity;BMP_temperature;BMP_pressure;BME280_temperature;BME280_humidity;BME280_pressure;Samples;Min_cycle;Max_cycle;Signal;HPM_P1;HPM_P2
2022/06/17 00:01:55;;;;;;;3.25;1.42;;;20.90;49.00;;;20.69;51.14;101166.44;5012379;28;20041;-79
2022/06/17 00:04:22;;;;;;;4.22;1.30;;;20.70;49.00;;;20.59;51.17;101154.50;4993185;28;20415;-77
2022/06/17 00:07:00;;;;;;;4.28;1.98;;;20.60;48.90;;;20.67;49.99;101159.44;4993260;28;20081;-78
2022/06/17 00:09:30;;;;;;;4.68;1.30;;;20.60;48.90;;;20.53;50.94;101157.50;4992845;28;20046;-78
2022/06/17 00:11:58;;;;;;;;;;;20.60;49.10;;;20.72;49.73;101159.19;5009289;28;20104;-78
2022/06/17 00:14:33;;;;;;;2.45;1.40;;;20.50;48.80;;;20.65;49.75;101159.50;4991567;28;20413;-78
2022/06/17 00:17:09;;;;;;;1.90;1.48;;;20.50;48.80;;;20.57;50.77;101160.84;4992201;28;20054;-78
2022/06/17 00:19:36;;;;;;;2.08;1.27;;;20.50;49.10;;;20.42;53.23;101170.56;4992989;28;20042;-78
2022/06/17 00:22:04;;;;;;;3.63;1.48;;;20.40;49.50;;;20.30;54.89;101164.91;5004889;28;20048;-78
2022/06/17 00:24:34;;;;;;;2.28;1.45;;;20.30;49.90;;;20.11;56.76;101173.03;5027934;28;20092;-78
2022/06/17 00:27:01;;;;;;;2.10;1.40;;;20.30;50.20;;;20.06;56.09;101181.28;5010949;28;20080;-78
2022/06/17 00:29:30;;;;;;;3.67;1.70;;;20.70;50.30;;;20.06;56.17;101183.09;5028750;28;20080;-78
2022/06/17 00:31:58;;;;;;;3.60;1.42;;;20.00;50.10;;;19.93;56.26;101186.38;5012346;28;20136;-77
2022/06/17 00:34:25;;;;;;;2.58;1.58;;;20.00;50.20;;;19.98;55.46;101186.16;5011211;28;20161;-78
2022/06/17 00:37:00;;;;;;;2.28;1.48;;;19.90;50.20;;;19.92;56.63;101178.47;5027728;28;20124;-78
2022/06/17 00:39:31;;;;;;;2.65;1.10;;;19.80;50.30;;;20.00;55.22;101186.09;5027611;28;20045;-78
2022/06/17 00:42:14;;;;;;;4.32;1.50;;;19.80;50.40;;;19.90;56.90;101177.63;5028815;28;20132;-78
2022/06/17 00:45:06;;;;;;;2.13;1.75;;;19.80;50.70;;;19.87;56.41;101173.31;4996844;28;20049;-78
2022/06/17 00:47:49;;;;;;;3.97;1.58;;;19.70;50.60;;;19.96;52.81;101170.19;5028732;28;20037;-78
2022/06/17 00:50:23;;;;;;;4.55;1.50;;;19.70;50.20;;;19.84;54.95;101162.78;5011969;28;20144;-78
2022/06/17 00:53:14;;;;;;;3.00;1.55;;;19.70;50.40;;;19.81;56.42;101160.25;5008879;28;20124;-78
2022/06/17 00:56:13;;;;;;;2.17;1.23;;;19.70;50.50;;;19.83;54.98;101163.75;5028789;28;20056;-78
2022/06/17 00:59:10;;;;;;;2.10;1.40;;;19.60;50.50;;;19.61;58.48;101162.13;5029832;28;20055;-78
2022/06/17 01:01:53;;;;;;;2.45;1.60;;;19.60;51.10;;;19.47;60.15;101151.25;4998190;28;20049;-77
2022/06/17 01:04:42;;;;;;;3.20;1.30;;;19.50;51.40;;;19.35;63.12;101148.25;5014812;28;20053;-78
2022/06/17 01:07:31;;;;;;;1.67;1.30;;;20.40;52.20;;;19.40;60.86;101148.91;5013981;28;20763;-78
2022/06/17 01:10:08;;;;;;;1.30;1.20;;;19.30;51.40;;;19.35;62.40;101147.41;4989957;28;20069;-79
2022/06/17 01:12:57;;;;;;;2.38;1.42;;;19.30;52.00;;;19.36;63.05;101155.34;4995388;28;20514;-76
2022/06/17 01:15:27;;;;;;;3.40;1.40;;;19.80;52.70;;;19.21;68.33;101159.59;4993893;28;20046;-80
2022/06/17 01:17:58;;;;;;;3.72;1.42;;;19.20;53.10;;;19.05;69.80;101155.94;5011234;28;20078;-79
2022/06/17 01:20:28;;;;;;;3.60;1.60;;;19.10;53.30;;;18.94;71.15;101153.75;5010569;28;20475;-79
2022/06/17 01:22:59;;;;;;;3.08;1.73;;;19.00;53.60;;;18.96;69.05;101171.38;5011918;28;20117;-79
2022/06/17 01:25:33;;;;;;;3.53;1.65;;;17.50;52.80;;;18.89;70.28;101161.94;5012214;28;20145;-79
2022/06/17 01:28:12;;;;;;;2.75;1.42;;;18.90;53.80;;;18.74;72.76;101167.97;5015763;28;20116;-79
2022/06/17 01:30:54;;;;;;;1.63;1.33;;;18.80;54.10;;;18.62;73.21;101166.75;5014335;28;20149;-80
2022/06/17 01:33:32;;;;;;;3.45;1.25;;;18.70;54.30;;;18.64;73.62;101164.88;5016873;28;20053;-79
2022/06/17 01:36:20;;;;;;;2.25;1.55;;;18.60;54.50;;;18.57;74.61;101161.63;4999538;28;20104;-79
2022/06/17 01:38:52;;;;;;;2.17;1.58;;;18.60;55.00;;;18.56;75.20;101170.56;5014855;28;20148;-79
2022/06/17 01:41:25;;;;;;;2.05;1.30;;;18.60;55.20;;;18.58;76.45;101166.00;4998796;28;20274;-79
2022/06/17 01:44:17;;;;;;;2.25;1.48;;;18.50;55.60;;;18.32;79.65;101165.38;5014939;28;20052;-78
2022/06/17 01:46:49;;;;;;;2.97;1.30;;;18.40;56.10;;;18.30;80.50;101167.22;5016306;28;20050;-79
2022/06/17 01:49:27;;;;;;;1.88;1.52;;;18.30;56.40;;;18.27;81.85;101162.94;5014740;28;20573;-78
2022/06/17 01:52:01;;;;;;;1.85;1.60;;;18.30;56.90;;;18.06;85.22;101163.84;5026157;28;20053;-79
2022/06/17 01:54:47;;;;;;;1.75;1.58;;;18.20;57.90;;;17.99;85.31;101169.41;5034343;28;20087;-79
2022/06/17 01:57:25;;;;;;;2.40;1.60;;;18.10;58.20;;;18.14;82.01;101173.22;5018484;28;20046;-79
2022/06/17 02:00:00;;;;;;;2.60;1.50;;;18.10;57.90;;;18.02;83.85;101164.88;5033968;28;20041;-79
2022/06/17 02:02:43;;;;;;;1.50;1.40;;;18.10;58.70;;;17.96;84.72;101166.00;5034812;28;20076;-78
2022/06/17 02:05:12;;;;;;;2.63;1.50;;;18.60;59.30;;;18.08;83.70;101170.84;5001138;28;20050;-79
2022/06/17 02:08:03;;;;;;;2.90;1.60;;;18.00;59.40;;;18.03;83.33;101156.88;4998557;28;20069;-79
2022/06/17 02:10:38;;;;;;;3.13;1.60;;;18.00;59.90;;;18.06;83.46;101151.41;4997689;28;20050;-78
2022/06/17 02:13:09;;;;;;;3.28;1.42;;;16.60;59.90;;;18.02;87.94;101155.09;4998737;28;20042;-79
2022/06/17 02:16:02;;;;;;;3.13;1.60;;;17.90;61.90;;;17.94;90.63;101154.56;4998109;28;20062;-78
2022/06/17 02:18:55;;;;;;;2.45;1.48;;;18.00;63.30;;;17.97;91.04;101157.06;5000787;28;20052;-78
2022/06/17 02:21:38;;;;;;;3.15;1.65;;;17.90;64.40;;;17.84;91.76;101162.06;4997524;28;20053;-78
2022/06/17 02:24:06;;;;;;;2.47;1.70;;;17.90;66.10;;;17.63;95.25;101155.84;4998779;28;20050;-78
2022/06/17 02:26:36;;;;;;;2.13;1.60;;;17.70;66.80;;;17.50;95.26;101163.47;4997368;28;20541;-78
2022/06/17 02:29:07;;;;;;;1.70;1.50;;;19.60;69.30;;;17.39;96.56;101153.22;4997564;28;20050;-78
2022/06/17 02:31:37;;;;;;;2.38;1.50;;;17.60;69.50;;;17.36;99.14;101154.25;5013372;28;20067;-78
2022/06/17 02:34:06;;;;;;;3.30;1.73;;;17.50;72.30;;;17.36;99.40;101169.31;5013846;28;20042;-79
2022/06/17 02:36:48;;;;;;;4.53;1.77;;;17.70;73.40;;;17.35;98.54;101184.44;4996475;28;20046;-78
2022/06/17 02:39:16;;;;;;;2.97;1.80;;;17.40;74.30;;;17.18;100.00;101173.59;5011815;28;20057;-79
2022/06/17 02:41:47;;;;;;;1.73;1.50;;;17.30;76.40;;;17.19;98.27;101180.63;4997623;28;20053;-79
2022/06/17 02:44:22;;;;;;;3.15;1.80;;;17.30;76.50;;;17.22;99.20;101173.38;5013192;28;20100;-79
2022/06/17 02:46:55;;;;;;;1.90;1.70;;;17.20;77.70;;;17.27;97.47;101170.56;4998557;28;20137;-78
2022/06/17 02:49:27;;;;;;;2.70;1.80;;;17.20;77.90;;;17.07;100.00;101163.34;4997151;28;20127;-80
2022/06/17 02:51:55;;;;;;;4.72;1.88;;;17.20;80.00;;;16.95;100.00;101170.84;4997688;28;20073;-79
2022/06/17 02:54:43;;;;;;;2.13;1.80;;;17.10;80.60;;;16.99;100.00;101172.50;5014433;28;20453;-79
2022/06/17 02:57:25;;;;;;;2.63;2.05;;;17.10;82.60;;;16.96;100.00;101183.22;5001686;28;20045;-79
2022/06/17 03:00:11;;;;;;;3.90;1.80;;;17.00;82.80;;;17.10;100.00;101188.03;5016589;28;20061;-79
2022/06/17 03:02:43;;;;;;;2.40;1.75;;;17.10;83.20;;;16.98;100.00;101175.16;5017088;28;20136;-79
2022/06/17 03:05:28;;;;;;;2.63;1.52;;;17.00;83.70;;;16.89;100.00;101184.34;5016290;28;20041;-79
2022/06/17 03:07:58;;;;;;;4.00;1.90;;;17.00;84.60;;;16.87;100.00;101171.16;5009451;28;20518;-79
2022/06/17 03:10:41;;;;;;;3.53;1.55;;;16.90;84.80;;;16.79;100.00;101175.88;4996774;28;20057;-79
2022/06/17 03:13:33;;;;;;;7.45;2.17;;;16.90;85.70;;;16.71;100.00;101181.47;5013962;28;20537;-79
2022/06/17 03:16:03;;;;;;;2.85;1.77;;;16.80;86.50;;;16.61;100.00;101188.03;5014335;28;20057;-79
2022/06/17 03:18:32;;;;;;;2.88;1.70;;;16.70;87.90;;;16.47;100.00;101198.28;4997592;28;20049;-78
2022/06/17 03:21:01;;;;;;;3.78;2.00;;;16.70;88.00;;;16.54;100.00;101200.66;4980089;28;20144;-80
2022/06/17 03:23:42;;;;;;;3.83;1.95;;;16.60;88.00;;;16.48;100.00;101200.91;4996495;28;20054;-78
2022/06/17 03:26:14;;;;;;;5.10;2.75;;;16.60;89.10;;;16.56;100.00;101205.94;4981142;28;20123;-79
2022/06/17 03:28:48;;;;;;;2.40;1.95;;;16.50;89.30;;;16.59;100.00;101217.31;5012420;28;20474;-79
2022/06/17 03:31:23;;;;;;;2.72;1.80;;;16.50;89.20;;;16.56;100.00;101219.22;4996134;28;20042;-79
2022/06/17 03:34:11;;;;;;;3.10;2.00;;;16.50;89.20;;;16.53;100.00;101225.50;4996916;28;20074;-79
2022/06/17 03:37:08;;;;;;;5.00;3.03;;;16.40;89.70;;;16.41;100.00;101224.16;5012528;28;20084;-78
2022/06/17 03:39:50;;;;;;;3.47;1.70;;;16.50;90.30;;;16.34;100.00;101219.09;5013142;28;20297;-79
2022/06/17 03:42:30;;;;;;;3.22;2.30;;;16.40;90.60;;;16.43;100.00;101232.91;5012280;28;20534;-78
2022/06/17 03:45:18;;;;;;;2.58;1.90;;;16.30;90.80;;;16.39;100.00;101239.28;4980710;28;20586;-80
2022/06/17 03:47:59;;;;;;;2.75;2.00;;;16.30;91.10;;;16.38;100.00;101234.88;4996498;28;20050;-78
2022/06/17 03:50:35;;;;;;;3.03;2.05;;;16.30;91.40;;;16.32;100.00;101232.44;4978779;28;20048;-79
2022/06/17 03:53:17;;;;;;;2.63;2.17;;;16.80;91.80;;;16.30;100.00;101244.88;5012294;28;20392;-78
2022/06/17 03:55:44;;;;;;;2.88;2.00;;;16.30;91.70;;;16.22;100.00;101241.63;5012420;28;20130;-79
2022/06/17 03:58:17;;;;;;;3.47;1.95;;;16.30;91.80;;;16.15;100.00;101240.97;5012427;28;20083;-80
2022/06/17 04:01:10;;;;;;;2.53;1.88;;;16.30;91.80;;;16.23;100.00;101252.19;5012991;28;20434;-79
2022/06/17 04:03:42;;;;;;;4.55;2.15;;;16.20;91.80;;;16.10;100.00;101241.13;5031084;28;20049;-78
2022/06/17 04:06:14;;;;;;;4.45;2.17;;;16.20;92.10;;;16.31;100.00;101249.28;5031304;28;20574;-80
2022/06/17 04:08:56;;;;;;;2.95;1.75;;;16.20;91.90;;;16.17;100.00;101255.06;5015311;28;20068;-79
2022/06/17 04:11:49;;;;;;;6.13;2.40;;;16.20;92.40;;;16.20;100.00;101246.13;4999564;28;20115;-78
2022/06/17 04:15:07;;;;;;;3.13;2.13;;;16.20;92.50;;;16.08;100.00;101250.94;5015684;28;20047;-79
2022/06/17 04:17:42;;;;;;;;;;;16.20;92.60;;;16.01;100.00;101263.53;5016185;28;20042;-79
2022/06/17 04:20:35;;;;;;;2.00;1.80;;;16.10;92.80;;;16.17;100.00;101260.38;5014358;28;19929;-79
2022/06/17 04:23:28;;;;;;;2.20;2.00;;;16.00;93.20;;;16.16;100.00;101263.94;5036169;28;20076;-79
2022/06/17 04:26:30;;;;;;;4.30;1.90;;;16.10;93.00;;;16.28;100.00;101241.41;5025399;28;20135;-79
2022/06/17 04:29:07;;;;;;;2.88;2.00;;;16.10;92.70;;;16.32;100.00;101250.16;5012952;28;20052;-78
2022/06/17 04:31:35;;;;;;;4.75;2.10;;;16.20;93.00;;;16.29;100.00;101257.31;5032037;28;20283;-80
2022/06/17 04:34:16;;;;;;;2.30;2.08;;;16.20;93.20;;;16.34;100.00;101257.16;5008204;28;20061;-79
2022/06/17 04:37:09;;;;;;;4.25;2.08;;;16.20;93.20;;;16.45;100.00;101262.09;5036563;28;20057;-80
2022/06/17 04:39:59;;;;;;;5.03;2.10;;;16.20;93.10;;;16.45;100.00;101254.13;5025054;28;20045;-79
2022/06/17 04:42:58;;;;;;;3.85;2.20;;;16.30;93.20;;;16.55;100.00;101267.97;5022169;28;20057;-79
2022/06/17 04:45:29;;;;;;;3.88;2.03;;;16.30;92.70;;;16.51;100.00;101269.00;5015091;28;20171;-80
2022/06/17 04:48:01;;;;;;;3.95;2.50;;;16.40;93.00;;;16.55;100.00;101265.31;5000899;28;20047;-79
2022/06/17 04:50:31;;;;;;;3.33;2.20;;;16.80;93.10;;;16.57;100.00;101267.00;5014554;28;20146;-79
2022/06/17 04:52:58;;;;;;;4.25;2.40;;;16.40;93.00;;;16.66;100.00;101276.44;5015870;28;20049;-79
2022/06/17 04:55:43;;;;;;;4.78;2.38;;;16.50;93.20;;;16.83;100.00;101278.47;5018610;28;20542;-78
2022/06/17 04:58:38;;;;;;;3.15;2.20;;;16.50;92.70;;;16.88;100.00;101275.66;5007021;28;20041;-79
2022/06/17 05:01:19;;;;;;;2.83;2.33;;;16.60;92.90;;;16.90;100.00;101286.25;5033916;28;20647;-80
2022/06/17 05:04:01;;;;;;;2.90;2.25;;;16.70;92.90;;;16.99;100.00;101294.78;5032714;28;20060;-79
2022/06/17 05:06:42;;;;;;;3.25;2.50;;;16.70;93.20;;;17.06;100.00;101300.75;5015069;28;20054;-79
2022/06/17 05:09:31;;;;;;;3.50;2.40;;;16.80;92.70;;;17.12;100.00;101312.94;5014761;28;20050;-80
2022/06/17 05:12:07;;;;;;;4.28;2.38;;;16.80;93.00;;;17.20;100.00;101302.88;5002116;28;20056;-80
2022/06/17 05:14:52;;;;;;;4.93;2.28;;;16.90;92.40;;;17.31;100.00;101301.63;5000149;28;20060;-79
2022/06/17 05:17:20;;;;;;;4.18;2.20;;;17.00;92.50;;;17.36;100.00;101302.31;5006500;28;20072;-79
2022/06/17 05:19:49;;;;;;;6.15;2.25;;;17.10;92.60;;;17.51;100.00;101303.53;5035109;28;20049;-79
2022/06/17 05:22:31;;;;;;;5.68;2.85;;;17.20;92.30;;;17.59;100.00;101304.09;5019461;28;20649;-79
2022/06/17 05:25:10;;;;;;;3.42;2.10;;;17.20;92.00;;;17.56;100.00;101302.44;5035746;28;20061;-79
2022/06/17 05:27:37;;;;;;;3.90;2.67;;;17.30;92.20;;;17.70;100.00;101303.66;4994898;28;20057;-79
2022/06/17 05:30:06;;;;;;;2.65;2.15;;;17.40;91.80;;;17.79;100.00;101305.09;5033568;28;20099;-79
2022/06/17 05:32:39;;;;;;;3.00;2.22;;;17.40;91.90;;;17.86;100.00;101299.47;5003226;28;20042;-79
2022/06/17 05:35:06;;;;;;;3.28;2.35;;;17.70;91.60;;;18.06;100.00;101305.84;5017839;28;20103;-79
2022/06/17 05:37:34;;;;;;;4.72;2.53;;;17.70;91.60;;;18.24;100.00;101306.88;5017329;28;20053;-78
2022/06/17 05:40:05;;;;;;;10.38;2.60;;;17.80;91.20;;;18.35;100.00;101301.13;5002054;28;20054;-79
2022/06/17 05:42:32;;;;;;;2.88;2.20;;;17.90;91.30;;;18.40;100.00;101301.78;5017569;28;20041;-78
2022/06/17 05:45:00;;;;;;;3.72;1.73;;;18.00;91.40;;;18.46;100.00;101289.13;5018295;28;20057;-79
2022/06/17 05:48:00;;;;;;;5.45;2.50;;;18.10;91.20;;;18.67;100.00;101284.66;5011385;28;20049;-78
2022/06/17 05:50:38;;;;;;;3.58;2.53;;;18.20;90.90;;;18.75;100.00;101289.66;5019454;28;20053;-79
2022/06/17 05:53:27;;;;;;;4.32;1.95;;;18.40;91.30;;;18.85;100.00;101289.19;5049712;28;20045;-78
2022/06/17 05:56:02;;;;;;;3.15;2.20;;;18.40;90.90;;;18.91;96.93;101289.88;5041631;28;20060;-79
2022/06/17 05:58:29;;;;;;;4.50;2.22;;;18.50;90.60;;;18.95;97.42;101294.13;5034975;28;20671;-78
2022/06/17 06:00:58;;;;;;;3.57;1.70;;;18.50;90.50;;;19.07;98.16;101298.94;5034081;28;20053;-79
2022/06/17 06:03:28;;;;;;;4.00;2.30;;;18.60;90.50;;;19.12;96.26;101310.25;5033411;28;20045;-79
2022/06/17 06:06:01;;;;;;;2.60;1.90;;;18.80;90.30;;;19.12;91.71;101301.38;5033884;28;20046;-79
2022/06/17 06:08:32;;;;;;;4.82;2.00;;;18.70;90.00;;;19.13;91.36;101300.47;5034124;28;20042;-80
2022/06/17 06:11:04;;;;;;;3.60;2.22;;;18.80;89.40;;;19.18;89.25;101298.44;5033056;28;20534;-79
2022/06/17 06:13:39;;;;;;;4.38;1.60;;;18.80;89.10;;;19.24;86.92;101308.81;5033031;28;20046;-79
2022/06/17 06:16:08;;;;;;;3.35;2.20;;;18.90;88.10;;;19.31;89.45;101303.22;5033601;28;20057;-79
2022/06/17 06:18:45;;;;;;;9.40;2.65;;;18.90;88.60;;;19.43;86.97;101297.31;5033876;28;20538;-79
2022/06/17 06:21:16;;;;;;;2.55;2.00;;;18.90;88.10;;;19.47;86.12;101293.56;5030240;28;20046;-79
2022/06/17 06:23:45;;;;;;;2.30;1.70;;;19.00;87.70;;;19.53;83.19;101292.44;5012906;28;20085;-81
2022/06/17 06:26:20;;;;;;;2.67;1.80;;;19.10;87.70;;;19.57;87.71;101296.66;5014373;28;20057;-82
2022/06/17 06:28:59;;;;;;;2.22;1.90;;;19.20;88.20;;;19.66;84.32;101295.38;5014896;28;20426;-82
2022/06/17 06:31:33;;;;;;;3.53;1.63;;;19.30;87.30;;;19.79;81.56;101301.84;5003990;28;20045;-80
2022/06/17 06:34:21;;;;;;;2.40;1.80;;;19.30;86.90;;;19.86;77.60;101302.44;5003662;28;20049;-77
2022/06/17 06:36:49;;;;;;;4.45;1.60;;;19.60;86.10;;;19.87;72.81;101309.50;5045769;28;20077;-77
2022/06/17 06:39:16;;;;;;;3.50;1.90;;;19.50;84.90;;;19.98;72.09;101306.34;5029436;28;20301;-77
2022/06/17 06:41:43;;;;;;;5.53;1.50;;;19.50;84.40;;;20.07;72.84;101300.56;5029338;28;20506;-77
2022/06/17 06:44:10;;;;;;;2.47;1.70;;;19.60;84.50;;;20.17;69.42;101308.97;5009912;28;20104;-75
2022/06/17 06:47:16;;;;;;;4.22;1.80;;;19.60;83.70;;;20.21;67.95;101307.00;5008810;28;20418;-76
2022/06/17 06:50:10;;;;;;;4.90;1.70;;;19.70;83.10;;;20.34;64.10;101300.09;5026432;28;20054;-75
2022/06/17 06:52:37;;;;;;;3.35;1.73;;;19.80;81.90;;;20.48;62.16;101301.19;5027977;28;20041;-75
2022/06/17 06:55:10;;;;;;;4.60;2.15;;;20.00;81.40;;;20.63;60.79;101304.91;5029082;28;20753;-76
2022/06/17 06:57:58;;;;;;;3.42;1.60;;;20.10;80.90;;;20.73;59.60;101305.31;5030529;28;20069;-76
2022/06/17 07:00:33;;;;;;;3.05;1.38;;;20.10;80.20;;;20.81;59.97;101313.81;5028790;28;20050;-75
2022/06/17 07:03:02;;;;;;;2.88;1.40;;;20.30;80.10;;;20.87;58.71;101313.50;5026941;28;20045;-75
2022/06/17 07:05:30;;;;;;;2.92;1.60;;;20.30;79.50;;;20.95;58.55;101311.25;5023013;28;20088;-75
2022/06/17 07:08:01;;;;;;;2.78;1.45;;;20.40;79.30;;;21.07;59.36;101309.78;5044820;28;20068;-75
2022/06/17 07:10:32;;;;;;;;;;;20.50;79.30;;;21.17;57.92;101310.13;5031946;28;20162;-76
2022/06/17 07:13:17;;;;;;;2.70;1.60;;;20.60;79.00;;;21.25;58.18;101309.72;5029744;28;19924;-75
2022/06/17 07:15:47;;;;;;;2.58;1.50;;;20.70;78.90;;;21.35;58.68;101310.94;5030079;28;20045;-75
2022/06/17 07:18:19;;;;;;;5.15;2.05;;;20.80;79.00;;;21.48;57.28;101312.94;5025502;28;20045;-76
2022/06/17 07:20:51;;;;;;;3.42;1.65;;;20.90;78.40;;;21.52;55.44;101306.47;5029408;28;20057;-76
2022/06/17 07:23:33;;;;;;;5.47;1.98;;;20.90;77.50;;;21.60;54.61;101312.25;5044658;28;20053;-76
2022/06/17 07:26:07;;;;;;;4.07;1.80;;;21.00;77.20;;;21.68;56.53;101309.19;5029187;28;20053;-76
2022/06/17 07:28:34;;;;;;;2.92;1.30;;;21.10;77.50;;;21.71;56.19;101300.97;5043549;28;20050;-76
2022/06/17 07:31:02;;;;;;;3.33;1.80;;;21.20;77.40;;;21.81;57.44;101306.69;5043010;28;20067;-76
2022/06/17 07:33:31;;;;;;;5.15;1.55;;;21.20;77.80;;;21.90;55.54;101308.84;5028248;28;20045;-76
2022/06/17 07:36:01;;;;;;;5.25;1.63;;;21.30;77.20;;;21.90;54.21;101316.00;5043776;28;20515;-76
2022/06/17 07:41:23;;;;;;;2.08;1.45;;;21.40;76.90;;;22.11;53.90;101313.91;5028355;28;19998;-76
2022/06/17 07:43:53;;;;;;;4.97;1.50;;;21.60;76.20;;;22.20;54.49;101315.19;5028224;28;20680;-77
2022/06/17 07:46:22;;;;;;;2.67;1.60;;;21.60;76.20;;;22.27;53.79;101313.00;5012126;28;20042;-76
2022/06/17 07:48:50;;;;;;;5.15;1.45;;;21.70;75.90;;;22.33;53.25;101310.84;5011526;28;20103;-77
2022/06/17 07:51:17;;;;;;;5.82;1.55;;;21.70;75.70;;;22.44;54.92;101307.53;5026839;28;20045;-76
2022/06/17 07:53:44;;;;;;;3.97;1.70;;;21.80;76.10;;;22.49;53.62;101304.59;5022072;28;20133;-77
2022/06/17 07:56:14;;;;;;;4.03;1.58;;;21.90;75.60;;;22.59;53.80;101291.50;5027599;28;20045;-76
2022/06/17 07:58:44;;;;;;;2.38;1.48;;;22.00;75.70;;;22.71;53.56;101303.28;5026924;28;20068;-76
2022/06/17 08:01:13;;;;;;;3.70;1.58;;;22.00;75.40;;;22.81;54.66;101299.09;5026878;28;20532;-75
2022/06/17 08:03:42;;;;;;;2.65;1.30;;;22.10;75.80;;;22.89;52.42;101299.50;5023101;28;20041;-76
2022/06/17 08:06:13;;;;;;;2.00;1.50;;;22.30;74.90;;;22.94;51.37;101300.09;5035313;28;20104;-76
2022/06/17 08:08:41;;;;;;;3.28;1.90;;;22.30;74.20;;;23.03;50.55;101290.59;5026889;28;20128;-77
2022/06/17 08:11:09;;;;;;;2.58;1.48;;;22.40;73.80;;;23.15;51.84;101296.16;5023553;28;20123;-76
2022/06/17 08:13:37;;;;;;;3.90;1.52;;;22.50;74.30;;;23.22;51.46;101290.31;4996463;28;20046;-76
2022/06/17 08:16:08;;;;;;;6.45;1.75;;;22.60;74.10;;;23.38;51.79;101284.00;5043573;28;20819;-75
2022/06/17 08:18:38;;;;;;;3.85;1.92;;;22.70;74.40;;;23.41;50.87;101281.13;5027506;28;20037;-76
2022/06/17 08:21:06;;;;;;;5.68;2.17;;;22.80;73.90;;;23.51;50.26;101286.75;5027085;28;20103;-75
2022/06/17 08:23:33;;;;;;;5.03;1.70;;;22.90;73.30;;;23.61;51.23;101287.03;5018921;28;20052;-75
2022/06/17 08:26:01;;;;;;;6.07;2.47;;;23.00;73.70;;;23.71;52.60;101284.59;5022987;28;20498;-75
2022/06/17 08:28:31;;;;;;;6.95;1.98;;;23.00;74.10;;;23.76;49.96;101285.19;5026198;28;20749;-75
2022/06/17 08:30:58;;;;;;;4.55;1.90;;;23.10;72.90;;;23.81;48.80;101284.88;5024557;28;20053;-76
2022/06/17 08:33:30;;;;;;;6.75;1.98;;;23.20;72.20;;;23.87;48.48;101279.94;5025371;28;20418;-75
2022/06/17 08:36:21;;;;;;;3.65;1.80;;;23.30;72.00;;;23.95;48.04;101274.06;5025653;28;20049;-75
2022/06/17 08:38:52;;;;;;;3.63;1.85;;;23.30;71.60;;;24.03;49.20;101270.88;5025267;28;20135;-75
2022/06/17 08:41:33;;;;;;;3.42;1.83;;;23.40;72.00;;;24.07;47.21;101278.66;5026034;28;20072;-75
2022/06/17 08:44:33;;;;;;;5.10;1.88;;;23.50;70.70;;;24.16;46.02;101276.31;5023733;28;20049;-76
2022/06/17 08:47:21;;;;;;;4.40;1.70;;;23.50;70.40;;;24.10;48.20;101271.34;5024206;28;20123;-76
2022/06/17 08:50:13;;;;;;;1.85;1.40;;;23.50;71.40;;;24.07;42.54;101275.13;5024715;28;20526;-75
2022/06/17 08:53:33;;;;;;;2.42;1.83;;;23.60;67.00;;;24.15;45.75;101270.06;5029141;28;20037;-75
2022/06/17 08:56:32;;;;;;;5.82;2.28;;;23.60;68.40;;;24.20;44.14;101272.44;5025666;28;20037;-75
2022/06/17 08:59:08;;;;;;;3.47;1.60;;;23.60;67.70;;;24.22;45.08;101275.91;5022882;28;20053;-75
2022/06/17 09:01:58;;;;;;;2.83;1.67;;;23.60;68.50;;;24.23;44.40;101274.94;5023850;28;20132;-74
2022/06/17 09:04:54;;;;;;;4.03;1.45;;;23.60;67.50;;;24.28;45.16;101275.50;5024053;28;20088;-75
2022/06/17 09:07:46;;;;;;;3.00;1.70;;;23.70;68.30;;;24.34;44.55;101277.75;5026031;28;20053;-73
2022/06/17 09:10:40;;;;;;;3.20;1.50;;;23.70;68.40;;;24.36;42.68;101265.06;5026297;28;20608;-73
2022/06/17 09:13:29;;;;;;;4.20;2.00;;;23.80;66.50;;;24.44;43.94;101261.00;5026558;28;20124;-73
2022/06/17 09:16:25;;;;;;;3.27;1.50;;;23.80;66.90;;;24.48;42.62;101274.09;5025986;28;20056;-75
2022/06/17 09:19:02;;;;;;;3.28;1.63;;;23.90;66.40;;;24.53;42.38;101272.94;5015200;28;20067;-73
2022/06/17 09:22:00;;;;;;;2.85;1.50;;;24.00;65.70;;;24.62;42.97;101275.00;5026000;28;20038;-73
2022/06/17 09:24:37;;;;;;;2.05;1.60;;;24.00;66.10;;;24.65;41.07;101272.06;5023258;28;20057;-74
2022/06/17 09:27:18;;;;;;;3.78;1.63;;;24.00;64.40;;;24.75;41.58;101275.84;5025084;28;20041;-73
2022/06/17 09:30:03;;;;;;;2.58;1.20;;;24.10;64.80;;;24.94;38.63;101273.75;5026361;28;20056;-73
2022/06/17 09:32:52;;;;;;;3.03;1.40;;;24.30;62.00;;;24.88;38.12;101270.50;5041895;28;20041;-73
2022/06/17 09:35:43;;;;;;;2.53;1.38;;;24.40;61.50;;;24.95;39.01;101275.47;5041455;28;20041;-73
2022/06/17 09:38:44;;;;;;;1.77;1.30;;;24.40;61.40;;;25.06;39.72;101272.88;5040466;28;20042;-73
2022/06/17 09:41:29;;;;;;;5.85;1.70;;;24.40;62.30;;;25.27;39.61;101266.91;5025172;28;20837;-72
2022/06/17 09:44:18;;;;;;;3.63;1.58;;;24.60;62.60;;;25.43;40.37;101270.22;5008716;28;20077;-73
2022/06/17 09:46:52;;;;;;;6.57;1.45;;;24.70;62.60;;;25.60;38.88;101265.44;5026667;28;20052;-73
2022/06/17 09:49:48;;;;;;;2.60;1.55;;;24.80;61.80;;;25.75;38.87;101267.00;5044343;28;20059;-73
2022/06/17 09:52:36;;;;;;;5.57;2.03;;;25.00;61.60;;;25.79;38.08;101269.47;5030318;28;20048;-73
2022/06/17 09:55:16;;;;;;;1.30;1.20;;;25.10;61.30;;;25.90;37.83;101270.38;5020119;28;20102;-77
2022/06/17 09:57:56;;;;;;;;;;;25.20;60.50;;;26.02;36.88;101267.72;5031594;28;20111;-78
2022/06/17 10:00:31;;;;;;;3.80;1.30;;;25.30;59.60;;;26.10;36.79;101272.53;5014730;28;19932;-76
2022/06/17 10:03:19;;;;;;;2.25;1.20;;;25.40;59.60;;;26.28;35.39;101267.63;5012708;28;20060;-77
2022/06/17 10:06:03;;;;;;;2.40;1.20;;;25.50;58.00;;;26.43;37.08;101262.88;5012177;28;20107;-75
2022/06/17 10:09:05;;;;;;;4.88;1.80;;;25.70;59.50;;;26.60;36.61;101265.09;5028733;28;20128;-75
2022/06/17 10:11:56;;;;;;;2.80;1.17;;;25.90;59.20;;;26.60;35.55;101262.41;5014160;28;20053;-75
2022/06/17 10:14:53;;;;;;;2.92;1.42;;;26.00;58.10;;;26.48;35.03;101258.00;5028355;28;20108;-75
2022/06/17 10:20:59;;;;;;;2.08;1.30;;;26.10;58.50;;;26.78;34.17;101256.56;5029807;28;20051;-76
2022/06/17 10:24:06;;;;;;;2.85;1.13;;;26.10;56.20;;;26.78;34.34;101253.00;5043879;28;20050;-76
2022/06/17 10:27:22;;;;;;;3.05;1.50;;;26.20;56.00;;;27.02;35.30;101251.09;5029158;28;20107;-76
2022/06/17 10:30:15;;;;;;;3.45;1.48;;;26.30;56.90;;;27.10;35.69;101255.00;5028403;28;20037;-75
2022/06/17 10:32:49;;;;;;;3.17;1.52;;;26.40;57.10;;;27.12;35.22;101250.34;5009250;28;20068;-75
2022/06/17 10:35:36;;;;;;;4.18;1.30;;;26.50;56.90;;;27.16;34.99;101255.38;5008691;28;20042;-76
2022/06/17 10:38:10;;;;;;;4.30;1.75;;;26.60;57.00;;;27.13;33.77;101252.03;5007585;28;20108;-75
2022/06/17 10:40:40;;;;;;;2.22;1.52;;;26.60;55.50;;;27.30;34.91;101248.00;5009434;28;20400;-76
2022/06/17 10:43:12;;;;;;;;;;;26.60;56.40;;;27.43;33.98;101243.31;5008671;28;20050;-75
2022/06/17 10:45:40;;;;;;;2.13;1.20;;;26.70;55.30;;;27.58;33.66;101245.75;5008512;28;19925;-76
2022/06/17 10:48:40;;;;;;;3.63;1.30;;;26.80;55.50;;;27.80;33.75;101254.78;5000096;28;20050;-77
2022/06/17 10:51:08;;;;;;;1.20;1.10;;;26.90;55.30;;;27.88;33.84;101247.72;5029364;28;20491;-77
2022/06/17 10:53:45;;;;;;;1.38;1.20;;;27.20;55.40;;;27.96;34.40;101248.94;5027640;28;20225;-77
2022/06/17 10:56:27;;;;;;;2.35;1.13;;;27.20;55.70;;;28.07;33.30;101256.16;5028018;28;20056;-77
2022/06/17 10:59:08;;;;;;;2.42;1.05;;;27.40;54.90;;;28.23;33.33;101253.88;5027038;28;20053;-78
2022/06/17 11:01:49;;;;;;;2.05;1.30;;;27.50;55.00;;;28.38;30.49;101248.13;5027079;28;20482;-77
2022/06/17 11:04:24;;;;;;;4.53;1.13;;;27.60;52.60;;;28.45;30.93;101252.88;5029412;28;20132;-76
2022/06/17 11:07:23;;;;;;;1.40;1.20;;;27.70;52.80;;;28.33;31.16;101245.81;5028411;28;20053;-77